sensor_id;sensor_type;location;lat;lon;timestamp;P1;durP1;ratioP1;P2;durP2;ratioP2
11092;SDS011;5600;50.864;6.102;2022-09-01T00:02:33;25.80;;;3.53;;
11092;SDS011;5600;50.864;6.102;2022-09-01T00:05:34;29.73;;;3.55;;
11092;SDS011;5600;50.864;6.102;2022-09-01T00:08:36;21.77;;;3.35;;
11092;SDS011;5600;50.864;6.102;2022-09-01T00:11:37;28.15;;;3.78;;
11092;SDS011;5600;50.864;6.102;2022-09-01T00:14:39;27.63;;;3.80;;
11092;SDS011;5600;50.864;6.102;2022-09-01T00:17:40;28.37;;;3.93;;
11092;SDS011;5600;50.864;6.102;2022-09-01T00:20:40;28.80;;;4.30;;
11092;SDS011;5600;50.864;6.102;2022-09-01T00:23:41;29.80;;;4.33;;
11092;SDS011;5600;50.864;6.102;2022-09-01T00:26:42;30.27;;;4.60;;
11092;SDS011;5600;50.864;6.102;2022-09-01T00:29:44;29.63;;;4.20;;
11092;SDS011;5600;50.864;6.102;2022-09-01T00:32:45;32.10;;;4.20;;
11092;SDS011;5600;50.864;6.102;2022-09-01T00:35:47;27.37;;;3.97;;
11092;SDS011;5600;50.864;6.102;2022-09-01T00:38:48;35.70;;;4.43;;
11092;SDS011;5600;50.864;6.102;2022-09-01T00:41:51;30.10;;;4.47;;
11092;SDS011;5600;50.864;6.102;2022-09-01T00:44:52;34.63;;;4.80;;
11092;SDS011;5600;50.864;6.102;2022-09-01T00:47:52;36.77;;;5.03;;
11092;SDS011;5600;50.864;6.102;2022-09-01T00:50:53;30.97;;;5.13;;
11092;SDS011;5600;50.864;6.102;2022-09-01T00:53:55;38.40;;;5.40;;
11092;SDS011;5600;50.864;6.102;2022-09-01T00:56:57;37.43;;;5.13;;
11092;SDS011;5600;50.864;6.102;2022-09-01T01:00:01;29.83;;;4.40;;
11092;SDS011;5600;50.864;6.102;2022-09-01T01:03:10;24.67;;;4.27;;
11092;SDS011;5600;50.864;6.102;2022-09-01T01:06:13;26.33;;;4.30;;
11092;SDS011;5600;50.864;6.102;2022-09-01T01:09:16;25.97;;;4.23;;
11092;SDS011;5600;50.864;6.102;2022-09-01T01:12:19;23.30;;;4.17;;
11092;SDS011;5600;50.864;6.102;2022-09-01T01:15:20;19.33;;;4.30;;
11092;SDS011;5600;50.864;6.102;2022-09-01T01:18:21;16.67;;;4.13;;
11092;SDS011;5600;50.864;6.102;2022-09-01T01:21:28;16.33;;;3.90;;
11092;SDS011;5600;50.864;6.102;2022-09-01T01:24:55;28.57;;;4.63;;
11092;SDS011;5600;50.864;6.102;2022-09-01T01:28:30;28.23;;;4.43;;
11092;SDS011;5600;50.864;6.102;2022-09-01T01:31:39;25.70;;;4.20;;
11092;SDS011;5600;50.864;6.102;2022-09-01T01:34:40;29.43;;;4.53;;
11092;SDS011;5600;50.864;6.102;2022-09-01T01:37:43;24.67;;;4.40;;
11092;SDS011;5600;50.864;6.102;2022-09-01T01:40:46;17.07;;;3.73;;
11092;SDS011;5600;50.864;6.102;2022-09-01T01:43:47;19.77;;;4.03;;
11092;SDS011;5600;50.864;6.102;2022-09-01T01:46:49;20.97;;;3.87;;
11092;SDS011;5600;50.864;6.102;2022-09-01T01:49:51;29.93;;;4.90;;
11092;SDS011;5600;50.864;6.102;2022-09-01T01:52:53;20.00;;;4.40;;
11092;SDS011;5600;50.864;6.102;2022-09-01T01:55:55;22.13;;;4.90;;
11092;SDS011;5600;50.864;6.102;2022-09-01T01:58:57;24.57;;;4.77;;
11092;SDS011;5600;50.864;6.102;2022-09-01T02:02:01;25.47;;;5.27;;
11092;SDS011;5600;50.864;6.102;2022-09-01T02:05:02;23.20;;;4.93;;
11092;SDS011;5600;50.864;6.102;2022-09-01T02:08:05;25.03;;;4.53;;
11092;SDS011;5600;50.864;6.102;2022-09-01T02:11:08;24.23;;;4.93;;
11092;SDS011;5600;50.864;6.102;2022-09-01T02:14:08;41.77;;;6.07;;
11092;SDS011;5600;50.864;6.102;2022-09-01T02:17:09;29.93;;;6.10;;
11092;SDS011;5600;50.864;6.102;2022-09-01T02:20:10;26.27;;;5.70;;
11092;SDS011;5600;50.864;6.102;2022-09-01T02:23:11;29.30;;;5.90;;
11092;SDS011;5600;50.864;6.102;2022-09-01T02:26:14;18.03;;;4.90;;
11092;SDS011;5600;50.864;6.102;2022-09-01T02:29:18;28.20;;;6.67;;
11092;SDS011;5600;50.864;6.102;2022-09-01T02:32:24;36.63;;;7.13;;
11092;SDS011;5600;50.864;6.102;2022-09-01T02:35:26;30.87;;;6.13;;
11092;SDS011;5600;50.864;6.102;2022-09-01T02:38:33;28.60;;;5.97;;
11092;SDS011;5600;50.864;6.102;2022-09-01T02:41:34;29.23;;;6.00;;
11092;SDS011;5600;50.864;6.102;2022-09-01T02:44:35;17.30;;;4.93;;
11092;SDS011;5600;50.864;6.102;2022-09-01T02:47:36;30.37;;;5.60;;
11092;SDS011;5600;50.864;6.102;2022-09-01T02:50:44;29.10;;;6.10;;
11092;SDS011;5600;50.864;6.102;2022-09-01T02:53:45;29.83;;;6.63;;
11092;SDS011;5600;50.864;6.102;2022-09-01T02:56:52;29.80;;;7.00;;
11092;SDS011;5600;50.864;6.102;2022-09-01T02:59:56;32.97;;;6.70;;
11092;SDS011;5600;50.864;6.102;2022-09-01T03:02:58;28.23;;;6.73;;
11092;SDS011;5600;50.864;6.102;2022-09-01T03:06:00;32.77;;;7.30;;
11092;SDS011;5600;50.864;6.102;2022-09-01T03:09:03;36.40;;;7.47;;
11092;SDS011;5600;50.864;6.102;2022-09-01T03:12:06;41.37;;;6.77;;
11092;SDS011;5600;50.864;6.102;2022-09-01T03:15:07;57.77;;;7.90;;
11092;SDS011;5600;50.864;6.102;2022-09-01T03:18:08;24.57;;;5.70;;
11092;SDS011;5600;50.864;6.102;2022-09-01T03:21:11;23.00;;;6.10;;
11092;SDS011;5600;50.864;6.102;2022-09-01T03:24:17;27.43;;;6.87;;
11092;SDS011;5600;50.864;6.102;2022-09-01T03:27:19;20.57;;;5.67;;
11092;SDS011;5600;50.864;6.102;2022-09-01T03:30:20;25.57;;;5.60;;
11092;SDS011;5600;50.864;6.102;2022-09-01T03:33:21;23.07;;;5.97;;
11092;SDS011;5600;50.864;6.102;2022-09-01T03:36:24;21.63;;;5.70;;
11092;SDS011;5600;50.864;6.102;2022-09-01T03:39:27;27.70;;;6.33;;
11092;SDS011;5600;50.864;6.102;2022-09-01T03:42:28;15.93;;;5.87;;
11092;SDS011;5600;50.864;6.102;2022-09-01T03:45:30;30.33;;;7.10;;
11092;SDS011;5600;50.864;6.102;2022-09-01T03:48:37;29.30;;;6.63;;
11092;SDS011;5600;50.864;6.102;2022-09-01T03:51:40;35.13;;;7.13;;
11092;SDS011;5600;50.864;6.102;2022-09-01T03:54:44;28.97;;;6.57;;
11092;SDS011;5600;50.864;6.102;2022-09-01T03:57:45;29.63;;;6.00;;
11092;SDS011;5600;50.864;6.102;2022-09-01T04:00:47;32.20;;;6.47;;
11092;SDS011;5600;50.864;6.102;2022-09-01T04:03:54;24.87;;;6.20;;
11092;SDS011;5600;50.864;6.102;2022-09-01T04:06:58;28.37;;;7.03;;
11092;SDS011;5600;50.864;6.102;2022-09-01T04:09:59;33.03;;;7.13;;
11092;SDS011;5600;50.864;6.102;2022-09-01T04:13:01;27.90;;;6.23;;
11092;SDS011;5600;50.864;6.102;2022-09-01T04:16:02;30.73;;;7.13;;
11092;SDS011;5600;50.864;6.102;2022-09-01T04:19:10;35.17;;;6.70;;
11092;SDS011;5600;50.864;6.102;2022-09-01T04:22:30;35.67;;;6.50;;
11092;SDS011;5600;50.864;6.102;2022-09-01T04:25:32;36.43;;;6.40;;
11092;SDS011;5600;50.864;6.102;2022-09-01T04:28:36;49.00;;;7.17;;
11092;SDS011;5600;50.864;6.102;2022-09-01T04:31:39;36.27;;;6.87;;
11092;SDS011;5600;50.864;6.102;2022-09-01T04:34:41;35.47;;;7.83;;
11092;SDS011;5600;50.864;6.102;2022-09-01T04:37:44;34.93;;;6.83;;
11092;SDS011;5600;50.864;6.102;2022-09-01T04:40:47;31.80;;;6.10;;
11092;SDS011;5600;50.864;6.102;2022-09-01T04:43:49;34.90;;;6.37;;
11092;SDS011;5600;50.864;6.102;2022-09-01T04:46:51;25.60;;;6.07;;
11092;SDS011;5600;50.864;6.102;2022-09-01T04:49:53;30.30;;;6.13;;
11092;SDS011;5600;50.864;6.102;2022-09-01T04:53:00;33.40;;;7.40;;
11092;SDS011;5600;50.864;6.102;2022-09-01T04:56:07;34.63;;;8.03;;
11092;SDS011;5600;50.864;6.102;2022-09-01T04:59:13;31.50;;;7.30;;
11092;SDS011;5600;50.864;6.102;2022-09-01T05:02:15;46.07;;;6.80;;
11092;SDS011;5600;50.864;6.102;2022-09-01T05:05:17;23.70;;;6.53;;
11092;SDS011;5600;50.864;6.102;2022-09-01T05:08:20;20.60;;;5.57;;
11092;SDS011;5600;50.864;6.102;2022-09-01T05:11:23;33.33;;;6.93;;
11092;SDS011;5600;50.864;6.102;2022-09-01T05:14:32;47.40;;;9.13;;
11092;SDS011;5600;50.864;6.102;2022-09-01T05:17:33;27.17;;;6.83;;
11092;SDS011;5600;50.864;6.102;2022-09-01T05:20:36;26.80;;;6.47;;
11092;SDS011;5600;50.864;6.102;2022-09-01T05:23:42;31.77;;;6.50;;
11092;SDS011;5600;50.864;6.102;2022-09-01T05:26:44;39.57;;;7.37;;
11092;SDS011;5600;50.864;6.102;2022-09-01T05:29:47;30.27;;;6.37;;
11092;SDS011;5600;50.864;6.102;2022-09-01T05:32:49;32.67;;;6.03;;
11092;SDS011;5600;50.864;6.102;2022-09-01T05:35:52;48.83;;;7.53;;
11092;SDS011;5600;50.864;6.102;2022-09-01T05:38:55;55.60;;;7.97;;
11092;SDS011;5600;50.864;6.102;2022-09-01T05:41:58;25.17;;;6.27;;
11092;SDS011;5600;50.864;6.102;2022-09-01T05:45:01;25.67;;;5.97;;
11092;SDS011;5600;50.864;6.102;2022-09-01T05:48:03;59.03;;;7.97;;
11092;SDS011;5600;50.864;6.102;2022-09-01T05:51:05;47.40;;;9.27;;
11092;SDS011;5600;50.864;6.102;2022-09-01T05:54:08;40.33;;;9.53;;
11092;SDS011;5600;50.864;6.102;2022-09-01T05:57:11;31.07;;;8.63;;
11092;SDS011;5600;50.864;6.102;2022-09-01T06:00:12;58.27;;;9.90;;
11092;SDS011;5600;50.864;6.102;2022-09-01T06:03:14;36.83;;;8.53;;
11092;SDS011;5600;50.864;6.102;2022-09-01T06:06:18;36.57;;;8.80;;
11092;SDS011;5600;50.864;6.102;2022-09-01T06:09:24;39.27;;;7.83;;
11092;SDS011;5600;50.864;6.102;2022-09-01T06:12:27;46.47;;;8.70;;
11092;SDS011;5600;50.864;6.102;2022-09-01T06:15:29;70.17;;;10.53;;
11092;SDS011;5600;50.864;6.102;2022-09-01T06:18:32;52.03;;;8.23;;
11092;SDS011;5600;50.864;6.102;2022-09-01T06:21:34;61.13;;;9.10;;
11092;SDS011;5600;50.864;6.102;2022-09-01T06:24:37;78.50;;;9.53;;
11092;SDS011;5600;50.864;6.102;2022-09-01T06:27:39;78.73;;;9.80;;
11092;SDS011;5600;50.864;6.102;2022-09-01T06:30:42;51.93;;;8.97;;
11092;SDS011;5600;50.864;6.102;2022-09-01T06:33:44;51.00;;;7.93;;
11092;SDS011;5600;50.864;6.102;2022-09-01T06:36:47;51.37;;;8.27;;
11092;SDS011;5600;50.864;6.102;2022-09-01T06:39:50;33.00;;;6.83;;
11092;SDS011;5600;50.864;6.102;2022-09-01T06:42:51;64.80;;;8.20;;
11092;SDS011;5600;50.864;6.102;2022-09-01T06:45:53;70.30;;;8.13;;
11092;SDS011;5600;50.864;6.102;2022-09-01T06:48:56;44.57;;;6.47;;
11092;SDS011;5600;50.864;6.102;2022-09-01T06:51:58;44.63;;;7.23;;
11092;SDS011;5600;50.864;6.102;2022-09-01T06:55:02;47.13;;;6.70;;
11092;SDS011;5600;50.864;6.102;2022-09-01T06:58:04;45.40;;;6.50;;
11092;SDS011;5600;50.864;6.102;2022-09-01T07:01:07;53.57;;;6.57;;
11092;SDS011;5600;50.864;6.102;2022-09-01T07:04:15;45.10;;;5.70;;
11092;SDS011;5600;50.864;6.102;2022-09-01T07:07:22;55.40;;;6.57;;
11092;SDS011;5600;50.864;6.102;2022-09-01T07:11:01;72.95;;;7.75;;
11092;SDS011;5600;50.864;6.102;2022-09-01T07:14:06;57.27;;;6.83;;
11092;SDS011;5600;50.864;6.102;2022-09-01T07:17:07;44.40;;;5.82;;
11092;SDS011;5600;50.864;6.102;2022-09-01T07:20:09;46.60;;;5.78;;
11092;SDS011;5600;50.864;6.102;2022-09-01T07:23:10;46.17;;;5.80;;
11092;SDS011;5600;50.864;6.102;2022-09-01T07:26:12;20.38;;;4.32;;
11092;SDS011;5600;50.864;6.102;2022-09-01T07:29:22;50.42;;;6.07;;
11092;SDS011;5600;50.864;6.102;2022-09-01T07:32:28;40.55;;;5.13;;
11092;SDS011;5600;50.864;6.102;2022-09-01T07:35:29;63.05;;;6.45;;
11092;SDS011;5600;50.864;6.102;2022-09-01T07:38:33;46.92;;;5.45;;
11092;SDS011;5600;50.864;6.102;2022-09-01T07:41:33;43.38;;;5.20;;
11092;SDS011;5600;50.864;6.102;2022-09-01T07:44:40;67.72;;;6.50;;
11092;SDS011;5600;50.864;6.102;2022-09-01T07:48:19;67.35;;;6.20;;
11092;SDS011;5600;50.864;6.102;2022-09-01T07:51:23;52.25;;;5.57;;
11092;SDS011;5600;50.864;6.102;2022-09-01T07:54:26;23.95;;;3.63;;
11092;SDS011;5600;50.864;6.102;2022-09-01T07:57:26;39.97;;;4.30;;
11092;SDS011;5600;50.864;6.102;2022-09-01T08:00:27;37.10;;;4.55;;
11092;SDS011;5600;50.864;6.102;2022-09-01T08:03:36;45.88;;;4.95;;
11092;SDS011;5600;50.864;6.102;2022-09-01T08:06:39;35.13;;;4.20;;
11092;SDS011;5600;50.864;6.102;2022-09-01T08:09:42;43.42;;;4.65;;
11092;SDS011;5600;50.864;6.102;2022-09-01T08:12:43;40.55;;;4.82;;
11092;SDS011;5600;50.864;6.102;2022-09-01T08:15:44;52.25;;;5.05;;
11092;SDS011;5600;50.864;6.102;2022-09-01T08:18:46;44.35;;;4.75;;
11092;SDS011;5600;50.864;6.102;2022-09-01T08:21:55;43.38;;;4.70;;
11092;SDS011;5600;50.864;6.102;2022-09-01T08:25:01;37.90;;;4.20;;
11092;SDS011;5600;50.864;6.102;2022-09-01T08:28:05;43.22;;;4.60;;
11092;SDS011;5600;50.864;6.102;2022-09-01T08:31:07;61.63;;;5.35;;
11092;SDS011;5600;50.864;6.102;2022-09-01T08:34:13;29.17;;;3.75;;
11092;SDS011;5600;50.864;6.102;2022-09-01T08:37:16;24.35;;;3.35;;
11092;SDS011;5600;50.864;6.102;2022-09-01T08:40:18;27.58;;;3.75;;
11092;SDS011;5600;50.864;6.102;2022-09-01T08:46:38;46.28;;;4.72;;
11092;SDS011;5600;50.864;6.102;2022-09-01T08:49:41;30.90;;;3.85;;
11092;SDS011;5600;50.864;6.102;2022-09-01T08:52:59;25.25;;;3.30;;
11092;SDS011;5600;50.864;6.102;2022-09-01T08:56:20;36.25;;;3.85;;
11092;SDS011;5600;50.864;6.102;2022-09-01T08:59:22;41.15;;;4.40;;
11092;SDS011;5600;50.864;6.102;2022-09-01T09:06:32;28.00;;;3.50;;
11092;SDS011;5600;50.864;6.102;2022-09-01T09:09:52;25.02;;;3.50;;
11092;SDS011;5600;50.864;6.102;2022-09-01T09:13:05;40.90;;;4.57;;
11092;SDS011;5600;50.864;6.102;2022-09-01T09:16:16;23.30;;;3.10;;
11092;SDS011;5600;50.864;6.102;2022-09-01T09:22:28;20.88;;;3.35;;
11092;SDS011;5600;50.864;6.102;2022-09-01T09:25:29;11.98;;;2.83;;
11092;SDS011;5600;50.864;6.102;2022-09-01T09:28:30;24.52;;;3.25;;
11092;SDS011;5600;50.864;6.102;2022-09-01T09:31:35;33.83;;;3.72;;
11092;SDS011;5600;50.864;6.102;2022-09-01T09:34:42;21.35;;;3.20;;
11092;SDS011;5600;50.864;6.102;2022-09-01T09:37:43;37.38;;;4.22;;
11092;SDS011;5600;50.864;6.102;2022-09-01T09:44:04;33.67;;;3.80;;
11092;SDS011;5600;50.864;6.102;2022-09-01T09:50:44;33.78;;;3.75;;
11092;SDS011;5600;50.864;6.102;2022-09-01T09:53:44;35.17;;;3.90;;
11092;SDS011;5600;50.864;6.102;2022-09-01T09:56:46;37.90;;;4.03;;
11092;SDS011;5600;50.864;6.102;2022-09-01T09:59:53;29.73;;;3.35;;
11092;SDS011;5600;50.864;6.102;2022-09-01T10:03:02;24.83;;;3.10;;
11092;SDS011;5600;50.864;6.102;2022-09-01T10:06:11;17.65;;;2.70;;
11092;SDS011;5600;50.864;6.102;2022-09-01T10:09:15;34.38;;;3.58;;
11092;SDS011;5600;50.864;6.102;2022-09-01T10:12:23;24.02;;;3.40;;
11092;SDS011;5600;50.864;6.102;2022-09-01T10:15:27;25.73;;;3.22;;
11092;SDS011;5600;50.864;6.102;2022-09-01T10:18:41;39.67;;;3.90;;
11092;SDS011;5600;50.864;6.102;2022-09-01T10:21:44;29.08;;;3.53;;
11092;SDS011;5600;50.864;6.102;2022-09-01T10:24:45;37.85;;;4.18;;
11092;SDS011;5600;50.864;6.102;2022-09-01T10:27:48;27.55;;;3.15;;
11092;SDS011;5600;50.864;6.102;2022-09-01T10:30:52;29.45;;;3.13;;
11092;SDS011;5600;50.864;6.102;2022-09-01T10:34:03;42.90;;;3.97;;
11092;SDS011;5600;50.864;6.102;2022-09-01T10:37:05;31.83;;;3.25;;
11092;SDS011;5600;50.864;6.102;2022-09-01T10:43:32;58.53;;;4.80;;
11092;SDS011;5600;50.864;6.102;2022-09-01T10:46:41;35.13;;;3.70;;
11092;SDS011;5600;50.864;6.102;2022-09-01T10:55:58;29.98;;;3.35;;
11092;SDS011;5600;50.864;6.102;2022-09-01T11:02:22;21.20;;;2.67;;
11092;SDS011;5600;50.864;6.102;2022-09-01T11:05:22;45.75;;;3.88;;
11092;SDS011;5600;50.864;6.102;2022-09-01T11:08:38;23.58;;;2.67;;
11092;SDS011;5600;50.864;6.102;2022-09-01T11:15:39;24.23;;;2.88;;
11092;SDS011;5600;50.864;6.102;2022-09-01T11:18:41;23.05;;;2.92;;
11092;SDS011;5600;50.864;6.102;2022-09-01T11:21:42;24.13;;;2.92;;
11092;SDS011;5600;50.864;6.102;2022-09-01T11:24:46;41.50;;;3.70;;
11092;SDS011;5600;50.864;6.102;2022-09-01T11:34:13;39.60;;;3.78;;
11092;SDS011;5600;50.864;6.102;2022-09-01T11:37:22;44.13;;;3.85;;
11092;SDS011;5600;50.864;6.102;2022-09-01T11:40:27;35.65;;;3.45;;
11092;SDS011;5600;50.864;6.102;2022-09-01T11:43:30;22.40;;;2.97;;
11092;SDS011;5600;50.864;6.102;2022-09-01T11:46:32;23.83;;;3.10;;
11092;SDS011;5600;50.864;6.102;2022-09-01T11:49:36;43.15;;;3.72;;
11092;SDS011;5600;50.864;6.102;2022-09-01T11:52:39;31.15;;;5.35;;
11092;SDS011;5600;50.864;6.102;2022-09-01T11:55:42;43.92;;;3.78;;
11092;SDS011;5600;50.864;6.102;2022-09-01T11:58:45;25.25;;;3.15;;
11092;SDS011;5600;50.864;6.102;2022-09-01T12:01:46;20.90;;;2.70;;
11092;SDS011;5600;50.864;6.102;2022-09-01T12:04:46;33.80;;;3.55;;
11092;SDS011;5600;50.864;6.102;2022-09-01T12:07:48;34.25;;;3.67;;
11092;SDS011;5600;50.864;6.102;2022-09-01T12:10:49;33.97;;;3.35;;
11092;SDS011;5600;50.864;6.102;2022-09-01T12:14:07;24.10;;;2.70;;
11092;SDS011;5600;50.864;6.102;2022-09-01T12:17:09;8.25;;;2.05;;
11092;SDS011;5600;50.864;6.102;2022-09-01T12:20:21;25.70;;;3.03;;
11092;SDS011;5600;50.864;6.102;2022-09-01T12:23:34;22.90;;;2.70;;
11092;SDS011;5600;50.864;6.102;2022-09-01T12:26:37;35.92;;;3.60;;
11092;SDS011;5600;50.864;6.102;2022-09-01T12:29:38;38.50;;;3.67;;
11092;SDS011;5600;50.864;6.102;2022-09-01T12:32:40;49.60;;;4.70;;
11092;SDS011;5600;50.864;6.102;2022-09-01T12:35:41;50.95;;;4.60;;
11092;SDS011;5600;50.864;6.102;2022-09-01T12:38:42;27.65;;;3.55;;
11092;SDS011;5600;50.864;6.102;2022-09-01T12:41:44;31.38;;;3.55;;
11092;SDS011;5600;50.864;6.102;2022-09-01T12:44:47;24.42;;;2.95;;
11092;SDS011;5600;50.864;6.102;2022-09-01T12:47:56;53.70;;;5.05;;
11092;SDS011;5600;50.864;6.102;2022-09-01T12:50:57;28.45;;;3.28;;
11092;SDS011;5600;50.864;6.102;2022-09-01T12:54:23;20.08;;;2.92;;
11092;SDS011;5600;50.864;6.102;2022-09-01T12:57:25;26.88;;;3.25;;
11092;SDS011;5600;50.864;6.102;2022-09-01T13:00:34;20.75;;;2.80;;
11092;SDS011;5600;50.864;6.102;2022-09-01T13:07:24;18.52;;;2.78;;
11092;SDS011;5600;50.864;6.102;2022-09-01T13:10:26;23.38;;;3.30;;
11092;SDS011;5600;50.864;6.102;2022-09-01T13:13:30;31.75;;;3.67;;
11092;SDS011;5600;50.864;6.102;2022-09-01T13:16:34;34.65;;;3.78;;
11092;SDS011;5600;50.864;6.102;2022-09-01T13:19:36;42.08;;;4.28;;
11092;SDS011;5600;50.864;6.102;2022-09-01T13:22:38;115.68;;;8.40;;
11092;SDS011;5600;50.864;6.102;2022-09-01T13:25:41;38.00;;;4.00;;
11092;SDS011;5600;50.864;6.102;2022-09-01T13:28:43;66.72;;;5.85;;
11092;SDS011;5600;50.864;6.102;2022-09-01T13:31:44;58.92;;;5.68;;
11092;SDS011;5600;50.864;6.102;2022-09-01T13:34:45;47.42;;;4.53;;
11092;SDS011;5600;50.864;6.102;2022-09-01T13:37:50;26.80;;;3.83;;
11092;SDS011;5600;50.864;6.102;2022-09-01T13:40:51;30.70;;;4.10;;
11092;SDS011;5600;50.864;6.102;2022-09-01T13:43:52;45.10;;;4.65;;
11092;SDS011;5600;50.864;6.102;2022-09-01T13:46:53;34.10;;;3.80;;
11092;SDS011;5600;50.864;6.102;2022-09-01T13:49:54;31.65;;;3.85;;
11092;SDS011;5600;50.864;6.102;2022-09-01T13:52:55;36.38;;;4.00;;
11092;SDS011;5600;50.864;6.102;2022-09-01T13:55:56;35.70;;;3.90;;
11092;SDS011;5600;50.864;6.102;2022-09-01T13:58:57;33.33;;;3.95;;
11092;SDS011;5600;50.864;6.102;2022-09-01T14:01:57;29.13;;;3.45;;
11092;SDS011;5600;50.864;6.102;2022-09-01T14:04:58;41.50;;;4.28;;
11092;SDS011;5600;50.864;6.102;2022-09-01T14:07:59;31.38;;;3.78;;
11092;SDS011;5600;50.864;6.102;2022-09-01T14:11:01;23.48;;;3.38;;
11092;SDS011;5600;50.864;6.102;2022-09-01T14:14:02;34.78;;;4.30;;
11092;SDS011;5600;50.864;6.102;2022-09-01T14:17:03;46.65;;;4.32;;
11092;SDS011;5600;50.864;6.102;2022-09-01T14:20:06;24.70;;;3.45;;
11092;SDS011;5600;50.864;6.102;2022-09-01T14:23:11;17.77;;;2.88;;
11092;SDS011;5600;50.864;6.102;2022-09-01T14:26:14;23.75;;;3.25;;
11092;SDS011;5600;50.864;6.102;2022-09-01T14:29:15;37.90;;;4.15;;
11092;SDS011;5600;50.864;6.102;2022-09-01T14:32:16;37.85;;;4.20;;
11092;SDS011;5600;50.864;6.102;2022-09-01T14:35:19;21.67;;;3.08;;
11092;SDS011;5600;50.864;6.102;2022-09-01T14:38:23;37.95;;;4.07;;
11092;SDS011;5600;50.864;6.102;2022-09-01T14:41:24;41.38;;;4.28;;
11092;SDS011;5600;50.864;6.102;2022-09-01T14:44:25;25.30;;;3.47;;
11092;SDS011;5600;50.864;6.102;2022-09-01T14:47:26;23.30;;;3.33;;
11092;SDS011;5600;50.864;6.102;2022-09-01T14:50:28;25.52;;;3.40;;
11092;SDS011;5600;50.864;6.102;2022-09-01T14:53:31;26.90;;;3.78;;
11092;SDS011;5600;50.864;6.102;2022-09-01T14:56:32;31.67;;;3.88;;
11092;SDS011;5600;50.864;6.102;2022-09-01T14:59:33;30.45;;;3.72;;
11092;SDS011;5600;50.864;6.102;2022-09-01T15:02:34;47.40;;;4.75;;
11092;SDS011;5600;50.864;6.102;2022-09-01T15:05:36;33.08;;;3.92;;
11092;SDS011;5600;50.864;6.102;2022-09-01T15:08:37;34.42;;;4.05;;
11092;SDS011;5600;50.864;6.102;2022-09-01T15:11:39;44.25;;;4.70;;
11092;SDS011;5600;50.864;6.102;2022-09-01T15:14:41;34.70;;;4.25;;
11092;SDS011;5600;50.864;6.102;2022-09-01T15:17:42;27.45;;;3.70;;
11092;SDS011;5600;50.864;6.102;2022-09-01T15:20:43;60.47;;;5.72;;
11092;SDS011;5600;50.864;6.102;2022-09-01T15:23:44;49.20;;;4.97;;
11092;SDS011;5600;50.864;6.102;2022-09-01T15:26:44;50.67;;;5.05;;
11092;SDS011;5600;50.864;6.102;2022-09-01T15:29:46;35.65;;;4.40;;
11092;SDS011;5600;50.864;6.102;2022-09-01T15:32:49;39.03;;;4.47;;
11092;SDS011;5600;50.864;6.102;2022-09-01T15:35:52;34.65;;;4.18;;
11092;SDS011;5600;50.864;6.102;2022-09-01T15:38:53;26.73;;;3.38;;
11092;SDS011;5600;50.864;6.102;2022-09-01T15:41:54;24.50;;;3.45;;
11092;SDS011;5600;50.864;6.102;2022-09-01T15:44:55;41.33;;;4.43;;
11092;SDS011;5600;50.864;6.102;2022-09-01T15:47:55;32.60;;;3.85;;
11092;SDS011;5600;50.864;6.102;2022-09-01T15:51:12;87.35;;;6.93;;
11092;SDS011;5600;50.864;6.102;2022-09-01T15:54:29;36.35;;;4.22;;
11092;SDS011;5600;50.864;6.102;2022-09-01T15:57:29;32.05;;;3.72;;
11092;SDS011;5600;50.864;6.102;2022-09-01T16:00:30;40.92;;;4.35;;
11092;SDS011;5600;50.864;6.102;2022-09-01T16:03:31;48.17;;;4.95;;
11092;SDS011;5600;50.864;6.102;2022-09-01T16:06:33;30.75;;;4.03;;
11092;SDS011;5600;50.864;6.102;2022-09-01T16:09:34;65.28;;;5.85;;
11092;SDS011;5600;50.864;6.102;2022-09-01T16:12:41;40.03;;;4.45;;
11092;SDS011;5600;50.864;6.102;2022-09-01T16:15:47;38.95;;;4.43;;
11092;SDS011;5600;50.864;6.102;2022-09-01T16:18:59;36.95;;;4.00;;
11092;SDS011;5600;50.864;6.102;2022-09-01T16:22:12;34.15;;;3.97;;
11092;SDS011;5600;50.864;6.102;2022-09-01T16:25:29;35.25;;;4.05;;
11092;SDS011;5600;50.864;6.102;2022-09-01T16:28:32;26.70;;;3.63;;
11092;SDS011;5600;50.864;6.102;2022-09-01T16:31:34;43.60;;;4.82;;
11092;SDS011;5600;50.864;6.102;2022-09-01T16:34:35;37.00;;;4.20;;
11092;SDS011;5600;50.864;6.102;2022-09-01T16:41:00;35.95;;;4.15;;
11092;SDS011;5600;50.864;6.102;2022-09-01T16:44:13;37.95;;;4.88;;
11092;SDS011;5600;50.864;6.102;2022-09-01T16:47:54;58.88;;;5.78;;
11092;SDS011;5600;50.864;6.102;2022-09-01T16:54:51;55.38;;;5.40;;
11092;SDS011;5600;50.864;6.102;2022-09-01T16:59:15;32.10;;;4.50;;
11092;SDS011;5600;50.864;6.102;2022-09-01T17:08:17;42.83;;;4.88;;
11092;SDS011;5600;50.864;6.102;2022-09-01T17:14:50;54.25;;;5.40;;
11092;SDS011;5600;50.864;6.102;2022-09-01T17:18:02;30.70;;;3.95;;
11092;SDS011;5600;50.864;6.102;2022-09-01T17:21:15;43.20;;;4.72;;
11092;SDS011;5600;50.864;6.102;2022-09-01T17:28:00;50.38;;;4.88;;
11092;SDS011;5600;50.864;6.102;2022-09-01T17:31:20;43.17;;;4.97;;
11092;SDS011;5600;50.864;6.102;2022-09-01T17:34:32;45.28;;;4.72;;
11092;SDS011;5600;50.864;6.102;2022-09-01T17:37:55;50.40;;;5.18;;
11092;SDS011;5600;50.864;6.102;2022-09-01T17:48:06;27.50;;;3.88;;
11092;SDS011;5600;50.864;6.102;2022-09-01T17:51:19;18.73;;;3.45;;
11092;SDS011;5600;50.864;6.102;2022-09-01T17:54:41;20.15;;;2.97;;
11092;SDS011;5600;50.864;6.102;2022-09-01T17:58:03;38.42;;;4.60;;
11092;SDS011;5600;50.864;6.102;2022-09-01T18:01:16;33.30;;;4.30;;
11092;SDS011;5600;50.864;6.102;2022-09-01T18:11:16;27.95;;;3.78;;
11092;SDS011;5600;50.864;6.102;2022-09-01T18:14:50;20.55;;;3.30;;
11092;SDS011;5600;50.864;6.102;2022-09-01T18:17:49;20.23;;;3.70;;
11092;SDS011;5600;50.864;6.102;2022-09-01T18:20:56;28.05;;;3.70;;
11092;SDS011;5600;50.864;6.102;2022-09-01T18:24:20;26.25;;;4.07;;
11092;SDS011;5600;50.864;6.102;2022-09-01T18:27:29;14.27;;;3.30;;
11092;SDS011;5600;50.864;6.102;2022-09-01T18:30:34;34.70;;;4.45;;
11092;SDS011;5600;50.864;6.102;2022-09-01T18:33:51;19.73;;;3.67;;
11092;SDS011;5600;50.864;6.102;2022-09-01T18:40:43;19.20;;;3.20;;
11092;SDS011;5600;50.864;6.102;2022-09-01T18:47:39;28.67;;;3.63;;
11092;SDS011;5600;50.864;6.102;2022-09-01T18:54:17;31.10;;;4.22;;
11092;SDS011;5600;50.864;6.102;2022-09-01T18:57:32;30.15;;;3.92;;
11092;SDS011;5600;50.864;6.102;2022-09-01T19:00:49;24.50;;;3.60;;
11092;SDS011;5600;50.864;6.102;2022-09-01T19:03:59;33.45;;;4.53;;
11092;SDS011;5600;50.864;6.102;2022-09-01T19:19:50;26.85;;;3.70;;
11092;SDS011;5600;50.864;6.102;2022-09-01T19:23:01;21.38;;;3.33;;
11092;SDS011;5600;50.864;6.102;2022-09-01T19:26:24;24.85;;;3.60;;
11092;SDS011;5600;50.864;6.102;2022-09-01T19:29:26;22.58;;;3.67;;
11092;SDS011;5600;50.864;6.102;2022-09-01T19:32:33;23.58;;;3.63;;
11092;SDS011;5600;50.864;6.102;2022-09-01T19:35:35;21.80;;;3.72;;
11092;SDS011;5600;50.864;6.102;2022-09-01T19:38:39;16.70;;;3.10;;
11092;SDS011;5600;50.864;6.102;2022-09-01T19:45:06;18.77;;;3.20;;
11092;SDS011;5600;50.864;6.102;2022-09-01T19:48:36;20.30;;;3.75;;
11092;SDS011;5600;50.864;6.102;2022-09-01T19:55:16;22.95;;;3.72;;
11092;SDS011;5600;50.864;6.102;2022-09-01T20:01:55;32.67;;;4.20;;
11092;SDS011;5600;50.864;6.102;2022-09-01T20:18:02;35.15;;;4.57;;
11092;SDS011;5600;50.864;6.102;2022-09-01T20:21:09;46.30;;;5.70;;
11092;SDS011;5600;50.864;6.102;2022-09-01T20:24:33;59.65;;;6.30;;
11092;SDS011;5600;50.864;6.102;2022-09-01T20:27:51;28.00;;;4.28;;
11092;SDS011;5600;50.864;6.102;2022-09-01T20:31:12;42.38;;;5.00;;
11092;SDS011;5600;50.864;6.102;2022-09-01T20:34:28;40.25;;;5.20;;
11092;SDS011;5600;50.864;6.102;2022-09-01T20:37:45;37.58;;;4.65;;
11092;SDS011;5600;50.864;6.102;2022-09-01T20:40:51;41.70;;;4.97;;
11092;SDS011;5600;50.864;6.102;2022-09-01T20:43:55;34.90;;;4.82;;